createdAt,value
2023-02-28T00:01:27.077Z,9.85
2023-02-28T00:03:54.751Z,9.77
2023-02-28T00:06:22.205Z,9.35
2023-02-28T00:08:49.674Z,9.23
2023-02-28T00:11:17.922Z,9.70
2023-02-28T00:13:49.742Z,9.32
2023-02-28T00:16:21.637Z,9.70
2023-02-28T00:18:49.516Z,9.25
2023-02-28T00:21:18.065Z,9.32
2023-02-28T00:23:45.762Z,9.00
2023-02-28T00:26:13.154Z,9.23
2023-02-28T00:28:43.880Z,9.13
2023-02-28T00:31:11.491Z,8.88
2023-02-28T00:33:39.028Z,8.98
2023-02-28T00:36:08.629Z,8.60
2023-02-28T00:38:38.453Z,9.07
2023-02-28T00:41:06.433Z,9.05
2023-02-28T00:43:35.634Z,9.13
2023-02-28T00:46:03.949Z,8.32
2023-02-28T00:48:31.882Z,9.13
2023-02-28T00:50:59.485Z,8.32
2023-02-28T00:53:27.093Z,8.93
2023-02-28T00:55:54.432Z,9.00
2023-02-28T00:58:21.930Z,8.73
2023-02-28T01:00:50.142Z,8.82
2023-02-28T01:03:19.417Z,8.68
2023-02-28T01:05:47.485Z,8.47
2023-02-28T01:08:15.419Z,8.50
2023-02-28T01:10:44.508Z,8.27
2023-02-28T01:13:12.942Z,8.13
2023-02-28T01:15:43.490Z,8.73
2023-02-28T01:18:12.178Z,8.30
2023-02-28T01:20:39.441Z,8.38
2023-02-28T01:23:06.774Z,8.52
2023-02-28T01:25:36.632Z,9.02
2023-02-28T01:28:06.801Z,8.55
2023-02-28T01:30:35.117Z,8.15
2023-02-28T01:33:02.625Z,7.80
2023-02-28T01:35:30.129Z,8.02
2023-02-28T01:38:04.722Z,7.53
2023-02-28T01:40:37.287Z,7.63
2023-02-28T01:43:10.557Z,7.25
2023-02-28T01:45:38.250Z,6.68
2023-02-28T01:48:09.049Z,7.93
2023-02-28T01:50:40.560Z,8.52
2023-02-28T01:53:14.853Z,10.27
2023-02-28T01:55:43.916Z,16.55
2023-02-28T01:58:11.500Z,23.65
2023-02-28T02:00:39.966Z,26.17
2023-02-28T02:03:15.246Z,29.38
2023-02-28T02:05:48.791Z,29.10
2023-02-28T02:08:22.786Z,31.15
2023-02-28T02:10:52.288Z,25.90
2023-02-28T02:13:19.819Z,20.77
2023-02-28T02:16:21.475Z,19.70
2023-02-28T02:18:53.685Z,19.63
2023-02-28T02:21:46.036Z,18.90
2023-02-28T02:24:49.036Z,17.85
2023-02-28T02:27:47.461Z,15.32
2023-02-28T02:30:52.125Z,10.77
2023-02-28T02:33:28.373Z,9.98
2023-02-28T02:36:00.839Z,9.32
2023-02-28T02:38:46.277Z,8.95
2023-02-28T02:41:26.714Z,8.80
2023-02-28T02:44:08.532Z,7.80
2023-02-28T02:46:38.778Z,8.18
2023-02-28T02:49:10.369Z,7.40
2023-02-28T02:51:39.166Z,7.30
2023-02-28T02:54:24.338Z,7.47
2023-02-28T02:56:52.448Z,7.13
2023-02-28T02:59:22.615Z,7.32
2023-02-28T03:01:53.248Z,7.25
2023-02-28T03:04:22.523Z,6.60
2023-02-28T03:06:55.748Z,6.88
2023-02-28T03:09:23.893Z,6.68
2023-02-28T03:11:53.306Z,6.95
2023-02-28T03:14:46.150Z,6.57
2023-02-28T03:17:25.603Z,6.13
2023-02-28T03:19:54.778Z,6.88
2023-02-28T03:22:53.708Z,7.05
2023-02-28T03:25:59.244Z,6.47
2023-02-28T03:28:33.237Z,6.50
2023-02-28T03:31:10.272Z,6.18
2023-02-28T03:33:43.535Z,6.38
2023-02-28T03:36:17.344Z,6.70
2023-02-28T03:38:52.734Z,6.13
2023-02-28T03:41:41.647Z,6.65
2023-02-28T03:44:16.501Z,6.70
2023-02-28T03:46:49.763Z,5.85
2023-02-28T03:49:23.489Z,5.90
2023-02-28T03:51:51.208Z,6.53
2023-02-28T03:54:24.696Z,6.00
2023-02-28T03:57:06.945Z,5.75
2023-02-28T03:59:47.285Z,5.93
2023-02-28T04:02:14.638Z,6.30
2023-02-28T04:04:46.245Z,5.80
2023-02-28T04:07:13.755Z,6.10
2023-02-28T04:09:41.880Z,6.05
2023-02-28T04:12:09.423Z,6.10
2023-02-28T04:14:37.032Z,6.10
2023-02-28T04:17:04.640Z,6.03
2023-02-28T04:19:32.060Z,6.50
2023-02-28T04:21:59.543Z,6.63
2023-02-28T04:24:28.647Z,6.20
2023-02-28T04:26:57.626Z,6.25
2023-02-28T04:29:29.182Z,5.97
2023-02-28T04:31:59.068Z,7.05
2023-02-28T04:34:27.701Z,5.93
2023-02-28T04:37:11.626Z,5.95
2023-02-28T04:39:40.335Z,5.72
2023-02-28T04:42:07.824Z,6.55
2023-02-28T04:44:35.798Z,6.45
2023-02-28T04:47:03.000Z,6.47
2023-02-28T04:49:30.351Z,6.07
2023-02-28T04:51:57.759Z,6.32
2023-02-28T04:54:25.544Z,6.82
2023-02-28T04:56:52.848Z,6.45
2023-02-28T04:59:21.413Z,6.53
2023-02-28T05:01:50.388Z,6.63
2023-02-28T05:04:18.303Z,6.60
2023-02-28T05:06:45.594Z,6.70
2023-02-28T05:09:12.896Z,6.00
2023-02-28T05:11:40.831Z,6.43
2023-02-28T05:14:12.641Z,6.80
2023-02-28T05:16:40.336Z,6.47
2023-02-28T05:19:07.887Z,6.50
2023-02-28T05:21:55.889Z,6.55
2023-02-28T05:24:26.031Z,6.55
2023-02-28T05:26:55.166Z,6.70
2023-02-28T05:29:22.938Z,6.68
2023-02-28T05:31:50.583Z,7.07
2023-02-28T05:34:18.020Z,6.93
2023-02-28T05:36:45.548Z,6.15
2023-02-28T05:39:14.073Z,6.70
2023-02-28T05:41:44.921Z,6.45
2023-02-28T05:44:13.130Z,6.63
2023-02-28T05:46:40.677Z,6.72
2023-02-28T05:49:07.974Z,6.70
2023-02-28T05:51:37.266Z,7.10
2023-02-28T05:54:04.954Z,6.55
2023-02-28T05:56:32.805Z,7.20
2023-02-28T05:59:00.293Z,8.82
2023-02-28T06:01:38.244Z,8.68
2023-02-28T06:04:08.015Z,9.32
2023-02-28T06:06:37.355Z,9.40
2023-02-28T06:09:06.230Z,10.68
2023-02-28T06:11:34.342Z,10.45
2023-02-28T06:14:02.863Z,11.52
2023-02-28T06:16:32.053Z,12.05
2023-02-28T06:19:01.017Z,12.50
2023-02-28T06:21:29.448Z,12.83
2023-02-28T06:23:58.425Z,12.65
2023-02-28T06:26:26.302Z,13.85
2023-02-28T06:28:54.133Z,13.20
2023-02-28T06:31:22.201Z,13.23
2023-02-28T06:33:50.051Z,13.52
2023-02-28T06:36:17.998Z,13.48
2023-02-28T06:38:45.596Z,14.00
2023-02-28T06:41:12.912Z,13.90
2023-02-28T06:43:42.377Z,15.18
2023-02-28T06:46:12.479Z,15.27
2023-02-28T06:48:40.088Z,15.25
2023-02-28T06:51:08.643Z,15.57
2023-02-28T06:53:36.527Z,16.27
2023-02-28T06:56:08.642Z,15.82
2023-02-28T06:58:36.577Z,15.93
2023-02-28T07:01:04.709Z,16.17
2023-02-28T07:03:34.380Z,17.65
2023-02-28T07:08:29.406Z,16.50
2023-02-28T07:10:57.239Z,15.63
2023-02-28T07:13:24.960Z,16.95
2023-02-28T07:15:59.290Z,17.88
2023-02-28T07:18:27.122Z,16.75
2023-02-28T07:20:54.585Z,24.52
2023-02-28T07:23:22.295Z,20.52
2023-02-28T07:25:51.736Z,50.45
2023-02-28T07:28:19.215Z,17.90
2023-02-28T07:30:46.614Z,18.73
2023-02-28T07:33:14.306Z,17.35
2023-02-28T07:35:42.123Z,16.70
2023-02-28T07:38:09.744Z,17.17
2023-02-28T07:40:37.532Z,17.92
2023-02-28T07:43:04.956Z,17.00
2023-02-28T07:45:35.428Z,16.67
2023-02-28T07:48:06.393Z,17.10
2023-02-28T07:50:33.818Z,17.40
2023-02-28T07:53:01.516Z,17.33
2023-02-28T07:55:29.014Z,17.00
2023-02-28T07:57:58.215Z,16.42
2023-02-28T08:00:25.931Z,17.30
2023-02-28T08:02:53.316Z,18.13
2023-02-28T08:05:22.262Z,17.13
2023-02-28T08:07:50.652Z,15.63
2023-02-28T08:10:18.159Z,16.48
2023-02-28T08:12:47.814Z,16.40
2023-02-28T08:15:15.148Z,16.30
2023-02-28T08:17:42.668Z,16.10
2023-02-28T08:20:11.421Z,16.08
2023-02-28T08:22:38.910Z,15.68
2023-02-28T08:25:08.227Z,16.20
2023-02-28T08:27:36.470Z,16.17
2023-02-28T08:30:04.763Z,15.20
2023-02-28T08:32:34.258Z,15.48
2023-02-28T08:35:02.854Z,15.77
2023-02-28T08:37:30.214Z,15.70
2023-02-28T08:39:57.816Z,14.63
2023-02-28T08:42:25.515Z,15.30
2023-02-28T08:44:52.975Z,14.60
2023-02-28T08:47:20.349Z,14.35
2023-02-28T08:49:47.715Z,14.98
2023-02-28T08:52:17.594Z,15.43
2023-02-28T08:57:12.296Z,15.20
2023-02-28T08:59:39.675Z,16.80
2023-02-28T09:02:07.091Z,16.05
2023-02-28T09:04:35.195Z,16.08
2023-02-28T09:07:02.531Z,15.43
2023-02-28T09:09:29.965Z,15.77
2023-02-28T09:11:58.306Z,14.27
2023-02-28T09:14:25.810Z,14.40
2023-02-28T09:16:53.207Z,12.80
2023-02-28T09:19:20.568Z,14.05
2023-02-28T09:21:48.010Z,13.02
2023-02-28T09:24:16.416Z,13.18
2023-02-28T09:26:56.505Z,12.52
2023-02-28T09:29:32.469Z,13.02
2023-02-28T09:32:00.498Z,13.32
2023-02-28T09:34:28.934Z,13.20
2023-02-28T09:36:56.315Z,13.70
2023-02-28T09:39:24.607Z,12.52
2023-02-28T09:41:53.436Z,11.48
2023-02-28T09:44:28.239Z,11.63
2023-02-28T09:47:01.972Z,12.48
2023-02-28T09:49:38.856Z,11.68
2023-02-28T09:52:12.160Z,13.25
2023-02-28T09:54:40.152Z,12.80
2023-02-28T09:57:19.203Z,13.00
2023-02-28T10:00:01.633Z,13.17
2023-02-28T10:02:32.853Z,12.63
2023-02-28T10:05:08.232Z,12.38
2023-02-28T10:07:47.322Z,11.23
2023-02-28T10:10:42.046Z,13.30
2023-02-28T10:13:43.460Z,13.05
2023-02-28T10:16:35.802Z,12.48
2023-02-28T10:19:17.273Z,12.43
2023-02-28T10:21:55.674Z,10.52
2023-02-28T10:24:49.085Z,11.25
2023-02-28T10:27:19.690Z,11.20
2023-02-28T10:29:55.419Z,11.77
2023-02-28T10:32:32.462Z,11.85
2023-02-28T10:35:20.831Z,12.77
2023-02-28T10:37:51.092Z,9.27
2023-02-28T10:40:18.681Z,10.73
2023-02-28T10:43:19.947Z,9.27
2023-02-28T10:46:09.162Z,9.35
2023-02-28T10:48:46.034Z,10.18
2023-02-28T10:51:15.656Z,10.23
2023-02-28T10:54:03.103Z,9.30
2023-02-28T10:56:32.106Z,9.23
2023-02-28T10:59:09.094Z,8.07
2023-02-28T11:01:50.214Z,6.80
2023-02-28T11:04:23.766Z,6.15
2023-02-28T11:07:20.758Z,5.72
2023-02-28T11:09:52.423Z,6.60
2023-02-28T11:12:46.894Z,6.68
2023-02-28T11:15:26.449Z,7.88
2023-02-28T11:18:28.908Z,7.57
2023-02-28T11:21:00.344Z,8.00
2023-02-28T11:23:31.910Z,7.70
2023-02-28T11:26:03.160Z,9.27
2023-02-28T11:28:36.010Z,5.93
2023-02-28T11:31:17.630Z,6.28
2023-02-28T11:33:56.658Z,6.53
2023-02-28T11:36:27.120Z,6.43
2023-02-28T11:38:57.128Z,6.68
2023-02-28T11:41:41.512Z,6.30
2023-02-28T11:44:32.710Z,6.65
2023-02-28T11:47:16.121Z,7.05
2023-02-28T11:49:50.208Z,7.57
2023-02-28T11:52:37.267Z,7.03
2023-02-28T11:55:35.671Z,6.95
2023-02-28T11:58:25.069Z,7.68
2023-02-28T12:01:22.719Z,7.63
2023-02-28T12:03:52.951Z,6.22
2023-02-28T12:06:45.022Z,6.70
2023-02-28T12:09:34.353Z,6.30
2023-02-28T12:12:26.540Z,6.70
2023-02-28T12:15:18.372Z,6.43
2023-02-28T12:17:56.237Z,5.70
2023-02-28T12:21:11.262Z,6.07
2023-02-28T12:24:05.258Z,7.10
2023-02-28T12:26:47.852Z,7.10
2023-02-28T12:29:35.360Z,6.13
2023-02-28T12:32:19.960Z,6.63
2023-02-28T12:34:51.159Z,6.40
2023-02-28T12:37:28.758Z,6.07
2023-02-28T12:40:27.031Z,6.03
2023-02-28T12:43:00.030Z,6.22
2023-02-28T12:45:39.774Z,6.15
2023-02-28T12:48:11.689Z,6.10
2023-02-28T12:50:39.297Z,6.68
2023-02-28T12:53:37.237Z,6.10
2023-02-28T12:56:16.901Z,6.13
2023-02-28T12:58:54.940Z,6.43
2023-02-28T13:01:37.498Z,6.75
2023-02-28T13:04:29.755Z,6.70
2023-02-28T13:07:18.859Z,5.90
2023-02-28T13:10:01.131Z,6.13
2023-02-28T13:12:28.908Z,5.70
2023-02-28T13:15:25.762Z,6.18
2023-02-28T13:17:58.122Z,5.68
2023-02-28T13:20:36.964Z,5.18
2023-02-28T13:23:06.496Z,5.93
2023-02-28T13:25:43.024Z,5.95
2023-02-28T13:28:13.305Z,5.95
2023-02-28T13:30:53.196Z,5.45
2023-02-28T13:33:36.363Z,5.63
2023-02-28T13:36:11.302Z,5.93
2023-02-28T13:38:43.501Z,5.68
2023-02-28T13:41:32.794Z,6.20
2023-02-28T13:44:32.501Z,6.25
2023-02-28T13:47:01.516Z,5.97
2023-02-28T13:49:30.200Z,7.25
2023-02-28T13:52:17.876Z,6.32
2023-02-28T13:55:17.518Z,5.82
2023-02-28T13:58:29.920Z,5.90
2023-02-28T14:01:24.413Z,5.97
2023-02-28T14:04:04.554Z,5.30
2023-02-28T14:06:34.397Z,4.97
2023-02-28T14:09:08.911Z,5.15
2023-02-28T14:11:38.551Z,5.57
2023-02-28T14:14:08.259Z,5.47
2023-02-28T14:16:48.009Z,5.20
2023-02-28T14:19:32.651Z,5.13
2023-02-28T14:22:05.739Z,5.70
2023-02-28T14:24:42.069Z,5.80
2023-02-28T14:27:28.075Z,5.65
2023-02-28T14:30:05.818Z,5.18
2023-02-28T14:32:39.303Z,5.65
2023-02-28T14:35:28.007Z,5.07
2023-02-28T14:37:56.116Z,5.10
2023-02-28T14:40:28.599Z,6.22
2023-02-28T14:43:01.247Z,5.20
2023-02-28T14:45:31.658Z,5.40
2023-02-28T14:48:00.361Z,5.20
2023-02-28T14:50:35.032Z,5.43
2023-02-28T14:53:03.532Z,5.43
2023-02-28T14:55:32.986Z,5.07
2023-02-28T14:58:19.069Z,5.00
2023-02-28T15:00:51.770Z,5.28
2023-02-28T15:03:40.285Z,5.18
2023-02-28T15:06:15.036Z,5.28
2023-02-28T15:08:42.353Z,5.35
2023-02-28T15:11:14.331Z,4.75
2023-02-28T15:13:47.599Z,5.60
2023-02-28T15:16:18.208Z,5.45
2023-02-28T15:18:49.311Z,5.43
2023-02-28T15:21:22.517Z,5.80
2023-02-28T15:23:54.762Z,6.45
2023-02-28T15:26:24.982Z,5.90
2023-02-28T15:28:58.260Z,5.82
2023-02-28T15:31:58.738Z,5.32
2023-02-28T15:34:43.027Z,5.32
2023-02-28T15:37:31.832Z,5.30
2023-02-28T15:40:11.781Z,4.70
2023-02-28T15:42:39.191Z,4.95
2023-02-28T15:45:07.038Z,5.57
2023-02-28T15:47:34.520Z,5.35
2023-02-28T15:50:04.587Z,5.10
2023-02-28T15:55:13.613Z,4.78
2023-02-28T15:57:41.619Z,5.20
2023-02-28T16:00:14.402Z,5.18
2023-02-28T16:02:42.692Z,5.68
2023-02-28T16:05:09.991Z,5.30
2023-02-28T16:07:43.078Z,5.30
2023-02-28T16:10:12.632Z,5.55
2023-02-28T16:12:40.853Z,5.65
2023-02-28T16:15:30.079Z,6.20
2023-02-28T16:17:58.013Z,5.85
2023-02-28T16:20:31.155Z,4.70
2023-02-28T16:23:02.330Z,4.60
2023-02-28T16:25:40.771Z,5.03
2023-02-28T16:28:19.570Z,4.85
2023-02-28T16:30:46.996Z,5.05
2023-02-28T16:33:14.327Z,5.13
2023-02-28T16:35:47.211Z,8.98
2023-02-28T16:38:14.509Z,6.63
2023-02-28T16:40:41.862Z,5.10
2023-02-28T16:43:17.143Z,5.05
2023-02-28T16:45:44.969Z,5.32
2023-02-28T16:48:14.858Z,5.63
2023-02-28T16:53:09.583Z,5.28
2023-02-28T16:55:36.955Z,4.95
2023-02-28T16:58:04.957Z,5.50
2023-02-28T17:00:33.622Z,5.78
2023-02-28T17:03:01.244Z,5.10
2023-02-28T17:05:33.677Z,4.85
2023-02-28T17:08:02.692Z,4.90
2023-02-28T17:10:30.503Z,5.55
2023-02-28T17:13:06.190Z,4.88
2023-02-28T17:15:41.802Z,5.03
2023-02-28T17:18:13.053Z,5.50
2023-02-28T17:20:40.405Z,5.30
2023-02-28T17:23:08.014Z,5.28
2023-02-28T17:25:35.480Z,5.63
2023-02-28T17:28:02.887Z,5.40
2023-02-28T17:30:34.517Z,5.63
2023-02-28T17:33:01.944Z,5.68
2023-02-28T17:35:29.614Z,5.72
2023-02-28T17:37:57.091Z,5.50
2023-02-28T17:40:24.978Z,5.93
2023-02-28T17:42:53.495Z,6.55
2023-02-28T17:45:21.029Z,7.70
2023-02-28T17:47:54.214Z,12.27
2023-02-28T17:50:22.757Z,5.55
2023-02-28T17:52:51.456Z,5.55
2023-02-28T17:55:20.095Z,5.57
2023-02-28T17:57:47.843Z,5.43
2023-02-28T18:00:17.063Z,5.97
2023-02-28T18:02:45.070Z,5.40
2023-02-28T18:05:12.838Z,5.20
2023-02-28T18:07:40.826Z,5.50
2023-02-28T18:10:15.993Z,5.85
2023-02-28T18:12:44.077Z,6.30
2023-02-28T18:15:11.805Z,5.75
2023-02-28T18:17:39.478Z,5.40
2023-02-28T18:20:07.121Z,5.32
2023-02-28T18:22:36.974Z,5.40
2023-02-28T18:25:05.770Z,4.90
2023-02-28T18:27:34.055Z,5.03
2023-02-28T18:30:01.887Z,5.70
2023-02-28T18:32:29.966Z,6.15
2023-02-28T18:34:57.710Z,6.00
2023-02-28T18:37:25.468Z,5.80
2023-02-28T18:39:52.754Z,6.47
2023-02-28T18:42:20.024Z,6.22
2023-02-28T18:44:47.520Z,5.68
2023-02-28T18:47:14.986Z,6.40
2023-02-28T18:49:42.220Z,5.70
2023-02-28T18:52:09.569Z,6.72
2023-02-28T18:54:36.939Z,5.75
2023-02-28T18:57:06.784Z,5.88
2023-02-28T18:59:34.076Z,5.57
2023-02-28T19:02:01.389Z,5.93
2023-02-28T19:04:28.918Z,6.28
2023-02-28T19:06:56.278Z,5.88
2023-02-28T19:09:24.067Z,5.60
2023-02-28T19:11:51.789Z,7.10
2023-02-28T19:14:21.033Z,6.53
2023-02-28T19:16:50.276Z,6.67
2023-02-28T19:19:17.638Z,6.03
2023-02-28T19:21:45.063Z,5.80
2023-02-28T19:24:12.599Z,5.93
2023-02-28T19:26:40.434Z,6.20
2023-02-28T19:29:07.856Z,6.25
2023-02-28T19:31:35.393Z,5.97
2023-02-28T19:34:02.803Z,6.13
2023-02-28T19:36:30.186Z,5.85
2023-02-28T19:38:57.877Z,6.65
2023-02-28T19:41:25.528Z,5.93
2023-02-28T19:43:53.451Z,6.78
2023-02-28T19:46:20.764Z,7.05
2023-02-28T19:48:48.851Z,8.48
2023-02-28T19:53:45.028Z,7.75
2023-02-28T19:56:12.673Z,7.50
2023-02-28T19:58:40.169Z,7.50
2023-02-28T20:01:15.537Z,6.60
2023-02-28T20:03:43.352Z,6.57
2023-02-28T20:06:13.896Z,7.13
2023-02-28T20:08:41.605Z,7.38
2023-02-28T20:11:11.559Z,7.47
2023-02-28T20:16:09.639Z,8.75
2023-02-28T20:18:38.133Z,7.10
2023-02-28T20:21:08.642Z,6.43
2023-02-28T20:23:38.228Z,6.47
2023-02-28T20:26:06.163Z,6.53
2023-02-28T20:28:33.620Z,6.90
2023-02-28T20:31:01.357Z,7.05
2023-02-28T20:33:28.936Z,7.03
2023-02-28T20:36:01.226Z,7.40
2023-02-28T20:38:28.820Z,7.00
2023-02-28T20:40:58.293Z,7.43
2023-02-28T20:43:26.376Z,6.82
2023-02-28T20:45:55.493Z,6.72
2023-02-28T20:48:22.856Z,6.63
2023-02-28T20:50:51.241Z,7.07
2023-02-28T20:53:19.376Z,7.25
2023-02-28T20:56:04.729Z,6.93
2023-02-28T20:58:34.246Z,7.93
2023-02-28T21:01:15.845Z,7.38
2023-02-28T21:03:48.477Z,7.15
2023-02-28T21:06:17.961Z,7.15
2023-02-28T21:08:45.389Z,7.93
2023-02-28T21:11:15.070Z,7.90
2023-02-28T21:13:43.470Z,7.38
2023-02-28T21:16:13.721Z,7.65
2023-02-28T21:18:41.172Z,7.90
2023-02-28T21:21:14.673Z,7.35
2023-02-28T21:23:42.473Z,7.63
2023-02-28T21:26:12.220Z,7.70
2023-02-28T21:28:44.257Z,8.05
2023-02-28T21:31:14.541Z,7.82
2023-02-28T21:33:43.367Z,7.47
2023-02-28T21:36:16.021Z,7.65
2023-02-28T21:38:44.713Z,7.13
2023-02-28T21:41:18.413Z,8.15
2023-02-28T21:43:46.403Z,7.95
2023-02-28T21:46:17.389Z,7.82
2023-02-28T21:48:45.189Z,7.90
2023-02-28T21:51:15.126Z,7.03
2023-02-28T21:53:43.203Z,8.15
2023-02-28T21:56:16.465Z,7.70
2023-02-28T21:58:44.141Z,7.63
2023-02-28T22:01:19.651Z,7.60
2023-02-28T22:03:48.656Z,7.82
2023-02-28T22:06:17.716Z,7.45
2023-02-28T22:08:47.188Z,7.70
2023-02-28T22:11:15.313Z,8.60
2023-02-28T22:13:43.204Z,8.13
2023-02-28T22:16:16.974Z,8.63
2023-02-28T22:18:44.945Z,8.38
2023-02-28T22:21:13.496Z,8.68
2023-02-28T22:23:41.929Z,8.77
2023-02-28T22:26:11.947Z,8.50
2023-02-28T22:28:39.678Z,8.02
2023-02-28T22:31:33.601Z,8.32
2023-02-28T22:34:03.483Z,7.82
2023-02-28T22:36:31.202Z,9.43
2023-02-28T22:38:58.930Z,8.57
2023-02-28T22:41:26.702Z,8.57
2023-02-28T22:43:56.402Z,8.25
2023-02-28T22:46:24.903Z,8.05
2023-02-28T22:48:52.858Z,8.88
2023-02-28T22:51:25.619Z,8.90
2023-02-28T22:53:55.035Z,8.93
2023-02-28T22:56:23.883Z,8.82
2023-02-28T22:58:52.826Z,8.25
2023-02-28T23:01:22.211Z,8.97
2023-02-28T23:03:49.821Z,8.30
2023-02-28T23:06:32.269Z,8.45
2023-02-28T23:09:02.935Z,8.88
2023-02-28T23:11:42.714Z,8.57
2023-02-28T23:14:12.821Z,8.90
2023-02-28T23:16:49.843Z,9.30
2023-02-28T23:19:22.433Z,8.02
2023-02-28T23:21:50.132Z,8.05
2023-02-28T23:24:19.343Z,8.35
2023-02-28T23:26:49.513Z,7.72
2023-02-28T23:29:23.569Z,8.20
2023-02-28T23:31:51.180Z,7.88
2023-02-28T23:34:26.487Z,7.80
2023-02-28T23:36:54.622Z,7.90
2023-02-28T23:39:24.128Z,7.57
2023-02-28T23:41:51.636Z,8.60
2023-02-28T23:44:19.845Z,7.95
2023-02-28T23:46:49.528Z,8.40
2023-02-28T23:49:20.412Z,8.70
2023-02-28T23:51:49.368Z,8.40
2023-02-28T23:54:18.030Z,8.65
2023-02-28T23:56:45.578Z,8.52
2023-02-28T23:59:13.435Z,8.32
